createdAt,value
2022-10-10T00:01:22.205Z,100195.19
2022-10-10T00:04:10.588Z,100219.31
2022-10-10T00:07:00.343Z,100218.91
2022-10-10T00:09:48.928Z,100220.78
2022-10-10T00:12:37.379Z,100217.06
2022-10-10T00:15:26.212Z,100218.72
2022-10-10T00:18:14.636Z,100224.28
2022-10-10T00:21:03.171Z,100219.56
2022-10-10T00:23:53.192Z,100209.88
2022-10-10T00:26:41.575Z,100209.63
2022-10-10T00:29:30.030Z,100214.78
2022-10-10T00:32:18.479Z,100209.56
2022-10-10T00:35:07.898Z,100214.50
2022-10-10T00:37:56.375Z,100209.09
2022-10-10T00:40:50.934Z,100211.16
2022-10-10T00:43:39.505Z,100209.25
2022-10-10T00:46:27.903Z,100203.44
2022-10-10T00:49:19.248Z,100211.53
2022-10-10T00:52:09.630Z,100202.88
2022-10-10T00:54:58.063Z,100075.41
2022-10-10T00:57:47.927Z,100210.03
2022-10-10T01:00:36.382Z,100201.78
2022-10-10T01:03:25.105Z,100187.13
2022-10-10T01:06:13.573Z,100204.75
2022-10-10T01:09:02.142Z,100199.31
2022-10-10T01:11:53.415Z,100206.13
2022-10-10T01:14:47.611Z,100187.38
2022-10-10T01:17:40.279Z,100199.34
2022-10-10T01:21:00.518Z,100186.53
2022-10-10T01:24:15.508Z,100177.84
2022-10-10T01:27:17.686Z,100196.81
2022-10-10T01:30:09.648Z,100048.38
2022-10-10T01:33:06.236Z,100192.47
2022-10-10T01:35:56.949Z,100189.88
2022-10-10T01:38:50.660Z,100187.53
2022-10-10T01:41:43.224Z,100184.31
2022-10-10T01:44:31.640Z,100198.34
2022-10-10T01:47:22.403Z,100171.31
2022-10-10T01:50:14.276Z,100202.94
2022-10-10T01:53:10.263Z,100200.09
2022-10-10T01:56:08.291Z,100186.31
2022-10-10T01:59:08.336Z,100195.59
2022-10-10T02:01:59.291Z,100196.69
2022-10-10T02:04:50.900Z,100163.16
2022-10-10T02:07:44.276Z,100188.72
2022-10-10T02:10:35.943Z,100171.38
2022-10-10T02:13:28.484Z,100190.16
2022-10-10T02:16:20.009Z,100162.03
2022-10-10T02:19:10.130Z,100181.13
2022-10-10T02:22:00.550Z,100174.47
2022-10-10T02:24:49.019Z,100166.56
2022-10-10T02:27:42.879Z,100167.78
2022-10-10T02:30:31.793Z,100151.28
2022-10-10T02:33:23.978Z,100158.69
2022-10-10T02:36:12.990Z,100165.63
2022-10-10T02:39:03.331Z,100159.00
2022-10-10T02:41:52.420Z,100168.16
2022-10-10T02:44:40.938Z,100167.38
2022-10-10T02:47:29.368Z,100166.63
2022-10-10T02:50:17.939Z,100167.41
2022-10-10T02:53:06.391Z,100168.66
2022-10-10T02:55:56.175Z,100166.81
2022-10-10T02:58:44.627Z,100176.03
2022-10-10T03:01:33.053Z,100177.72
2022-10-10T03:04:21.485Z,100170.94
2022-10-10T03:07:09.907Z,100178.72
2022-10-10T03:09:58.336Z,100174.00
2022-10-10T03:12:48.358Z,100169.03
2022-10-10T03:15:36.967Z,100174.69
2022-10-10T03:18:25.596Z,100171.59
2022-10-10T03:21:14.071Z,100173.16
2022-10-10T03:24:02.511Z,100167.78
2022-10-10T03:26:50.912Z,100175.41
2022-10-10T03:29:40.668Z,100172.78
2022-10-10T03:32:29.139Z,100177.72
2022-10-10T03:35:17.602Z,100173.97
2022-10-10T03:38:06.301Z,100186.25
2022-10-10T03:40:54.737Z,100190.03
2022-10-10T03:43:43.193Z,100191.88
2022-10-10T03:46:32.998Z,100183.38
2022-10-10T03:49:21.451Z,100181.34
2022-10-10T03:52:09.897Z,100191.09
2022-10-10T03:54:58.327Z,100183.84
2022-10-10T03:57:46.779Z,100178.41
2022-10-10T04:00:35.233Z,100173.22
2022-10-10T04:03:25.496Z,100178.00
2022-10-10T04:06:14.647Z,100179.03
2022-10-10T04:09:04.233Z,100175.31
2022-10-10T04:11:52.668Z,100147.41
2022-10-10T04:14:41.088Z,100180.69
2022-10-10T04:17:29.506Z,100175.53
2022-10-10T04:20:19.671Z,100158.28
2022-10-10T04:23:08.119Z,100179.16
2022-10-10T04:25:56.557Z,100182.72
2022-10-10T04:28:45.002Z,100178.16
2022-10-10T04:31:33.808Z,100179.41
2022-10-10T04:34:22.279Z,100167.69
2022-10-10T04:37:12.049Z,100171.50
2022-10-10T04:40:00.468Z,100170.81
2022-10-10T04:42:49.137Z,100185.56
2022-10-10T04:45:37.972Z,100173.50
2022-10-10T04:48:26.709Z,100174.09
2022-10-10T04:51:15.213Z,100175.22
2022-10-10T04:54:05.276Z,100171.31
2022-10-10T04:56:53.800Z,100119.16
2022-10-10T04:59:42.194Z,100168.00
2022-10-10T05:02:30.605Z,100170.44
2022-10-10T05:05:19.065Z,100133.84
2022-10-10T05:08:07.556Z,100154.13
2022-10-10T05:10:57.358Z,100176.34
2022-10-10T05:13:45.824Z,100175.66
2022-10-10T05:16:34.308Z,100177.69
2022-10-10T05:19:22.935Z,100180.38
2022-10-10T05:22:11.367Z,100183.72
2022-10-10T05:24:59.903Z,100174.06
2022-10-10T05:27:49.714Z,100175.47
2022-10-10T05:30:38.125Z,100187.44
2022-10-10T05:33:26.637Z,100188.69
2022-10-10T05:36:15.424Z,100178.28
2022-10-10T05:39:03.854Z,100187.25
2022-10-10T05:41:52.452Z,100197.09
2022-10-10T05:44:42.232Z,100183.16
2022-10-10T05:47:30.991Z,100188.03
2022-10-10T05:50:28.846Z,100187.72
2022-10-10T05:53:17.643Z,100187.53
2022-10-10T05:56:06.468Z,100178.19
2022-10-10T05:58:55.016Z,100197.78
2022-10-10T06:01:44.795Z,100172.56
2022-10-10T06:04:33.249Z,100194.41
2022-10-10T06:07:21.738Z,100177.41
2022-10-10T06:10:11.377Z,100194.00
2022-10-10T06:12:59.820Z,100185.34
2022-10-10T06:15:51.679Z,100193.84
2022-10-10T06:18:41.493Z,100199.78
2022-10-10T06:21:30.028Z,100204.66
2022-10-10T06:24:18.473Z,100203.03
2022-10-10T06:27:06.992Z,100201.03
2022-10-10T06:29:55.412Z,100200.84
2022-10-10T06:32:43.897Z,100211.25
2022-10-10T06:35:33.661Z,100209.91
2022-10-10T06:38:22.161Z,100203.84
2022-10-10T06:41:11.338Z,100212.97
2022-10-10T06:43:59.807Z,100230.91
2022-10-10T06:46:48.277Z,100222.66
2022-10-10T06:49:36.743Z,100227.63
2022-10-10T06:52:26.591Z,100233.81
2022-10-10T06:55:15.044Z,100235.66
2022-10-10T06:58:03.512Z,100234.81
2022-10-10T07:00:52.992Z,100240.19
2022-10-10T07:03:41.595Z,100222.19
2022-10-10T07:06:34.557Z,100250.31
2022-10-10T07:09:24.728Z,100243.75
2022-10-10T07:12:13.228Z,100246.19
2022-10-10T07:15:01.697Z,100256.13
2022-10-10T07:17:54.281Z,100271.38
2022-10-10T07:20:42.896Z,100266.44
2022-10-10T07:23:32.878Z,100261.28
2022-10-10T07:26:22.759Z,100267.50
2022-10-10T07:29:11.256Z,100265.63
2022-10-10T07:31:59.824Z,100268.72
2022-10-10T07:34:48.325Z,100271.81
2022-10-10T07:37:36.750Z,100268.09
2022-10-10T07:40:25.357Z,100245.81
2022-10-10T07:43:15.444Z,100280.09
2022-10-10T07:46:05.896Z,100251.22
2022-10-10T07:48:56.853Z,100270.69
2022-10-10T07:51:45.354Z,100271.00
2022-10-10T07:54:34.246Z,100273.19
2022-10-10T07:57:22.706Z,100277.97
2022-10-10T08:00:13.968Z,100266.16
2022-10-10T08:03:02.594Z,100284.31
2022-10-10T08:05:51.090Z,100283.50
2022-10-10T08:08:50.031Z,100289.16
2022-10-10T08:11:39.171Z,100285.16
2022-10-10T08:14:27.864Z,100149.81
2022-10-10T08:17:17.683Z,100282.72
2022-10-10T08:20:07.450Z,100285.34
2022-10-10T08:22:56.133Z,100294.63
2022-10-10T08:25:44.606Z,100273.03
2022-10-10T08:28:33.064Z,100297.59
2022-10-10T08:31:23.826Z,100286.31
2022-10-10T08:34:14.160Z,100286.53
2022-10-10T08:37:02.695Z,100301.16
2022-10-10T08:39:51.208Z,100293.50
2022-10-10T08:42:48.920Z,100300.19
2022-10-10T08:45:40.915Z,100300.81
2022-10-10T08:48:31.119Z,100294.88
2022-10-10T08:51:27.591Z,100289.72
2022-10-10T08:54:18.630Z,100287.47
2022-10-10T08:57:08.126Z,100262.91
2022-10-10T09:00:00.020Z,100259.31
2022-10-10T09:02:55.038Z,100281.84
2022-10-10T09:05:50.883Z,100280.44
2022-10-10T09:08:48.785Z,100277.97
2022-10-10T09:11:50.049Z,100280.72
2022-10-10T09:14:40.900Z,100273.25
2022-10-10T09:17:37.067Z,100266.00
2022-10-10T09:20:43.485Z,100284.81
2022-10-10T09:23:33.830Z,100276.19
2022-10-10T09:26:26.140Z,100285.13
2022-10-10T09:29:26.570Z,100278.66
2022-10-10T09:32:17.162Z,100276.66
2022-10-10T09:35:15.374Z,100282.56
2022-10-10T09:38:15.281Z,100282.72
2022-10-10T09:41:07.237Z,100277.75
2022-10-10T09:43:58.326Z,100278.63
2022-10-10T09:46:46.845Z,100275.50
2022-10-10T09:49:35.607Z,100279.66
2022-10-10T09:52:28.595Z,100279.53
2022-10-10T09:55:25.451Z,100275.56
2022-10-10T09:58:17.984Z,100274.84
2022-10-10T10:01:19.429Z,100276.75
2022-10-10T10:04:29.658Z,100273.59
2022-10-10T10:07:29.760Z,100278.78
2022-10-10T10:10:20.810Z,100246.78
2022-10-10T10:13:14.553Z,100272.75
2022-10-10T10:16:06.612Z,100268.75
2022-10-10T10:18:56.583Z,100266.34
2022-10-10T10:21:52.522Z,100262.28
2022-10-10T10:24:40.984Z,100271.59
2022-10-10T10:27:29.958Z,100262.31
2022-10-10T10:30:25.703Z,100247.88
2022-10-10T10:33:22.788Z,100273.00
2022-10-10T10:36:26.363Z,100231.50
2022-10-10T10:39:27.513Z,100280.38
2022-10-10T10:42:39.900Z,100280.94
2022-10-10T10:45:35.034Z,100254.75
2022-10-10T10:48:28.828Z,100271.91
2022-10-10T10:51:29.827Z,100273.84
2022-10-10T10:54:31.402Z,100277.34
2022-10-10T10:57:37.108Z,100274.91
2022-10-10T11:01:20.367Z,100267.19
2022-10-10T11:05:18.550Z,100245.06
2022-10-10T11:07:19.590Z,100264.41
2022-10-10T11:10:14.237Z,100271.00
2022-10-10T11:13:08.992Z,100251.06
2022-10-10T11:16:06.694Z,100269.66
2022-10-10T11:19:08.230Z,100242.03
2022-10-10T11:22:01.823Z,100246.28
2022-10-10T11:24:55.029Z,100247.06
2022-10-10T11:27:48.004Z,100264.97
2022-10-10T11:30:41.003Z,100254.28
2022-10-10T11:33:31.435Z,100260.69
2022-10-10T11:36:22.149Z,100260.94
2022-10-10T11:39:15.941Z,100252.69
2022-10-10T11:42:09.144Z,100242.56
2022-10-10T11:45:01.185Z,100260.94
2022-10-10T11:47:56.057Z,100248.56
2022-10-10T11:50:44.751Z,100105.72
2022-10-10T11:53:37.407Z,100232.66
2022-10-10T11:56:30.285Z,100235.25
2022-10-10T11:59:24.859Z,100238.56
2022-10-10T12:02:19.529Z,100139.31
2022-10-10T12:05:19.489Z,100233.50
2022-10-10T12:08:14.349Z,100243.28
2022-10-10T12:11:10.900Z,100235.91
2022-10-10T12:14:01.294Z,100238.31
2022-10-10T12:16:51.948Z,100243.78
2022-10-10T12:19:40.482Z,100252.75
2022-10-10T12:22:30.320Z,100236.09
2022-10-10T12:25:25.589Z,100246.03
2022-10-10T12:28:26.341Z,100231.97
2022-10-10T12:31:30.319Z,100210.72
2022-10-10T12:34:44.011Z,100235.09
2022-10-10T12:37:33.445Z,100225.44
2022-10-10T12:40:23.269Z,100230.44
2022-10-10T12:43:26.051Z,100232.50
2022-10-10T12:46:24.036Z,100239.31
2022-10-10T12:49:21.175Z,100224.84
2022-10-10T12:52:13.235Z,100228.91
2022-10-10T12:55:08.956Z,100182.50
2022-10-10T12:57:59.690Z,100227.97
2022-10-10T13:00:48.952Z,100230.34
2022-10-10T13:03:39.509Z,100232.00
2022-10-10T13:06:34.672Z,100220.78
2022-10-10T13:09:29.914Z,100224.66
2022-10-10T13:12:28.755Z,100220.84
2022-10-10T13:15:23.665Z,100217.94
2022-10-10T13:18:12.096Z,100203.41
2022-10-10T13:21:01.117Z,100212.69
2022-10-10T13:27:02.198Z,100215.06
2022-10-10T13:29:51.076Z,100208.00
2022-10-10T13:32:39.517Z,100216.25
2022-10-10T13:35:28.784Z,100205.25
2022-10-10T13:38:18.568Z,100195.38
2022-10-10T13:41:07.232Z,100205.66
2022-10-10T13:43:57.095Z,100210.38
2022-10-10T13:46:45.579Z,100205.81
2022-10-10T13:49:34.078Z,100211.84
2022-10-10T13:52:23.836Z,100212.06
2022-10-10T13:55:16.551Z,100210.47
2022-10-10T13:58:07.862Z,100192.16
2022-10-10T14:01:00.517Z,100210.16
2022-10-10T14:03:50.452Z,100206.56
2022-10-10T14:06:39.381Z,100211.47
2022-10-10T14:09:31.860Z,100203.28
2022-10-10T14:12:24.770Z,100207.91
2022-10-10T14:15:31.970Z,100210.16
2022-10-10T14:18:24.019Z,100214.31
2022-10-10T14:21:12.636Z,100208.97
2022-10-10T14:24:02.556Z,100215.56
2022-10-10T14:26:51.100Z,100214.44
2022-10-10T14:29:39.794Z,100211.97
2022-10-10T14:32:28.228Z,100206.28
2022-10-10T14:35:18.094Z,100204.25
2022-10-10T14:38:06.817Z,100207.09
2022-10-10T14:40:56.057Z,100213.66
2022-10-10T14:43:46.021Z,100205.75
2022-10-10T14:46:34.705Z,100200.97
2022-10-10T14:49:23.542Z,100211.84
2022-10-10T14:52:13.660Z,100207.50
2022-10-10T14:55:02.259Z,100207.28
2022-10-10T14:57:50.792Z,100204.50
2022-10-10T15:00:39.296Z,100213.88
2022-10-10T15:03:27.981Z,100212.56
2022-10-10T15:06:16.514Z,100204.19
2022-10-10T15:09:27.660Z,100102.56
2022-10-10T15:12:15.058Z,100202.59
2022-10-10T15:15:04.322Z,100198.81
2022-10-10T15:17:52.773Z,100187.94
2022-10-10T15:20:41.212Z,100212.00
2022-10-10T15:23:29.686Z,100212.28
2022-10-10T15:26:19.681Z,100209.28
2022-10-10T15:29:08.241Z,100193.22
2022-10-10T15:31:56.657Z,100209.59
2022-10-10T15:34:45.188Z,100208.78
2022-10-10T15:37:33.636Z,100216.16
2022-10-10T15:40:24.032Z,100219.16
2022-10-10T15:43:15.886Z,100222.16
2022-10-10T15:46:09.355Z,100217.81
2022-10-10T15:49:03.642Z,100219.72
2022-10-10T15:51:52.209Z,100209.13
2022-10-10T15:54:41.189Z,100182.94
2022-10-10T15:57:29.707Z,100222.50
2022-10-10T16:00:19.916Z,100226.06
2022-10-10T16:03:08.990Z,100224.94
2022-10-10T16:05:57.832Z,100227.41
2022-10-10T16:08:55.711Z,100224.69
2022-10-10T16:11:52.837Z,100202.56
2022-10-10T16:14:41.364Z,100212.94
2022-10-10T16:17:31.150Z,100226.25
2022-10-10T16:20:19.669Z,100222.13
2022-10-10T16:23:08.291Z,100223.44
2022-10-10T16:26:03.831Z,100219.28
2022-10-10T16:28:52.704Z,100220.88
2022-10-10T16:31:42.812Z,100215.34
2022-10-10T16:34:32.629Z,100228.94
2022-10-10T16:37:21.108Z,100227.25
2022-10-10T16:40:10.550Z,100230.97
2022-10-10T16:42:59.109Z,100214.75
2022-10-10T16:45:47.762Z,100234.63
2022-10-10T16:48:37.314Z,100204.19
2022-10-10T16:51:28.761Z,100248.34
2022-10-10T16:54:17.310Z,100244.13
2022-10-10T16:57:06.358Z,100243.44
2022-10-10T16:59:54.958Z,100227.13
2022-10-10T17:02:43.440Z,100236.03
2022-10-10T17:05:32.094Z,100255.31
2022-10-10T17:08:21.888Z,100244.00
2022-10-10T17:11:10.703Z,100255.09
2022-10-10T17:13:59.227Z,100218.09
2022-10-10T17:19:56.314Z,100263.44
2022-10-10T17:22:45.002Z,100274.47
2022-10-10T17:25:34.832Z,100281.16
2022-10-10T17:28:23.339Z,100262.97
2022-10-10T17:31:15.074Z,100266.97
2022-10-10T17:34:03.536Z,100284.63
2022-10-10T17:36:52.821Z,100287.28
2022-10-10T17:39:41.312Z,100289.75
2022-10-10T17:42:31.610Z,100293.88
2022-10-10T17:45:20.218Z,100293.72
2022-10-10T17:48:09.361Z,100289.50
2022-10-10T17:50:58.006Z,100259.69
2022-10-10T17:53:46.489Z,100277.50
2022-10-10T17:56:35.711Z,100295.25
2022-10-10T17:59:25.626Z,100307.91
2022-10-10T18:02:16.494Z,100302.59
2022-10-10T18:05:05.374Z,100275.03
2022-10-10T18:07:55.136Z,100315.13
2022-10-10T18:10:43.663Z,100313.38
2022-10-10T18:13:32.223Z,100327.19
2022-10-10T18:16:23.461Z,100330.19
2022-10-10T18:19:12.365Z,100332.22
2022-10-10T18:22:00.936Z,100335.06
2022-10-10T18:24:49.446Z,100335.25
2022-10-10T18:27:38.070Z,100336.38
2022-10-10T18:30:26.792Z,100336.56
2022-10-10T18:33:16.650Z,100353.50
2022-10-10T18:36:06.694Z,100355.00
2022-10-10T18:38:55.632Z,100361.03
2022-10-10T18:41:44.172Z,100354.66
2022-10-10T18:44:32.682Z,100340.50
2022-10-10T18:47:21.624Z,100347.97
2022-10-10T18:50:11.621Z,100357.47
2022-10-10T18:53:00.160Z,100356.19
2022-10-10T18:55:55.718Z,100362.34
2022-10-10T18:58:44.275Z,100360.34
2022-10-10T19:01:36.357Z,100366.50
2022-10-10T19:04:25.458Z,100359.19
2022-10-10T19:07:15.750Z,100367.31
2022-10-10T19:10:05.103Z,100368.41
2022-10-10T19:12:54.018Z,100367.91
2022-10-10T19:15:42.617Z,100359.00
2022-10-10T19:18:31.111Z,100385.59
2022-10-10T19:21:19.566Z,100380.44
2022-10-10T19:24:10.552Z,100387.63
2022-10-10T19:26:59.141Z,100385.78
2022-10-10T19:29:47.611Z,100388.34
2022-10-10T19:32:36.124Z,100385.53
2022-10-10T19:35:26.840Z,100358.44
2022-10-10T19:38:16.950Z,100397.19
2022-10-10T19:41:08.158Z,100384.00
2022-10-10T19:43:58.018Z,100371.72
2022-10-10T19:46:46.521Z,100402.25
2022-10-10T19:49:35.041Z,100405.44
2022-10-10T19:52:23.527Z,100406.97
2022-10-10T19:55:12.047Z,100410.13
2022-10-10T19:58:01.998Z,100412.03
2022-10-10T20:00:50.500Z,100419.44
2022-10-10T20:03:39.058Z,100426.94
2022-10-10T20:06:27.989Z,100435.41
2022-10-10T20:09:16.446Z,100439.41
2022-10-10T20:12:05.049Z,100446.34
2022-10-10T20:14:54.867Z,100451.50
2022-10-10T20:17:43.375Z,100458.94
2022-10-10T20:20:31.893Z,100464.81
2022-10-10T20:23:22.722Z,100459.41
2022-10-10T20:26:12.744Z,100478.81
2022-10-10T20:29:01.889Z,100478.50
2022-10-10T20:31:51.777Z,100485.44
2022-10-10T20:34:40.312Z,100485.56
2022-10-10T20:37:28.744Z,100484.59
2022-10-10T20:40:17.343Z,100494.84
2022-10-10T20:43:05.825Z,100499.72
2022-10-10T20:45:54.305Z,100500.19
2022-10-10T20:48:44.151Z,100507.22
2022-10-10T20:51:32.694Z,100480.03
2022-10-10T20:54:23.131Z,100509.94
2022-10-10T20:57:11.658Z,100510.53
2022-10-10T21:00:00.129Z,100514.53
2022-10-10T21:02:49.364Z,100499.97
2022-10-10T21:05:39.193Z,100519.25
2022-10-10T21:08:29.143Z,100528.91
2022-10-10T21:11:18.470Z,100530.78
2022-10-10T21:14:06.969Z,100537.78
2022-10-10T21:16:55.433Z,100535.06
2022-10-10T21:19:44.115Z,100539.53
2022-10-10T21:22:33.900Z,100540.22
2022-10-10T21:25:22.370Z,100544.47
2022-10-10T21:28:11.044Z,100540.97
2022-10-10T21:30:59.639Z,100546.34
2022-10-10T21:33:48.871Z,100554.00
2022-10-10T21:36:37.758Z,100568.00
2022-10-10T21:39:27.815Z,100573.09
2022-10-10T21:42:16.237Z,100589.13
2022-10-10T21:45:05.252Z,100587.72
2022-10-10T21:47:53.687Z,100580.91
2022-10-10T21:50:42.241Z,100590.91
2022-10-10T21:53:30.808Z,100594.91
2022-10-10T21:56:20.611Z,100589.97
2022-10-10T21:59:09.149Z,100591.38
2022-10-10T22:01:57.549Z,100594.44
2022-10-10T22:04:45.967Z,100606.38
2022-10-10T22:07:34.499Z,100603.06
2022-10-10T22:10:23.117Z,100604.59
2022-10-10T22:13:12.889Z,100606.50
2022-10-10T22:16:02.040Z,100612.63
2022-10-10T22:18:54.247Z,100614.66
2022-10-10T22:21:42.697Z,100609.13
2022-10-10T22:24:31.147Z,100614.78
2022-10-10T22:27:19.922Z,100609.94
2022-10-10T22:30:12.029Z,100586.00
2022-10-10T22:33:00.464Z,100618.31
2022-10-10T22:35:48.918Z,100627.75
2022-10-10T22:38:38.854Z,100627.28
2022-10-10T22:41:27.341Z,100626.31
2022-10-10T22:44:16.534Z,100629.72
2022-10-10T22:47:06.352Z,100628.91
2022-10-10T22:49:54.800Z,100633.47
2022-10-10T22:52:43.325Z,100630.19
2022-10-10T22:55:31.765Z,100592.94
2022-10-10T22:58:20.209Z,100636.78
2022-10-10T23:01:10.397Z,100637.25
2022-10-10T23:04:03.399Z,100631.13
2022-10-10T23:06:51.844Z,100643.59
2022-10-10T23:09:40.313Z,100641.47
2022-10-10T23:12:28.859Z,100648.31
2022-10-10T23:15:17.340Z,100656.91
2022-10-10T23:18:05.915Z,100653.09
2022-10-10T23:20:55.703Z,100652.25
2022-10-10T23:23:44.147Z,100648.84
2022-10-10T23:26:32.633Z,100671.19
2022-10-10T23:29:21.057Z,100654.00
2022-10-10T23:32:09.480Z,100661.75
2022-10-10T23:34:57.939Z,100650.56
2022-10-10T23:37:48.468Z,100652.66
2022-10-10T23:40:36.884Z,100660.91
2022-10-10T23:43:25.379Z,100662.84
2022-10-10T23:46:14.311Z,100653.00
2022-10-10T23:49:02.760Z,100663.59
2022-10-10T23:51:51.174Z,100675.09
2022-10-10T23:54:40.935Z,100667.06
2022-10-10T23:57:29.369Z,100670.47
